Port Lions, Alaska
Current Conditions -  °F | °C
As of 3:53 AM on Sunday 23 Nov 2014 (Local Time) from PADQ Reporting Station
Broken Clouds Broken Clouds  
Wind Chill: 32°   Ceiling: 3300
Heat Index: 32°   Visibility: 10mi
Dew Point: 30°   Wind: 3mph
Humidity: 92%   Direction: 250°WSW
Pressure: 29.23"   Gusts: NA
Location:  57.87°N, 152.88°W
Report Text: PADQ 231253Z 25003KT 10SM BKN033 00/M01 A2923 RMK AO2 SLP899 T00001011 $
Loading
Personal Weather Stations






























Interactive Weather Map New forecast layout! Learn more

10-Day Weather Forecast

Advertisements
Track Severe Weather on mobile